Athelstane, Wisconsin
Current Conditions -  °F | °C
As of 7:54 AM on Tuesday 21 Oct 2014 (Local Time) from KIMT Reporting Station
Overcast Overcast  
Wind Chill: 34°   Ceiling: 1300
Heat Index: 40°   Visibility: 10mi
Dew Point: 35°   Wind: 9mph
Humidity: 83%   Direction: 20°NNE
Pressure: 30.2"   Gusts: NA
Location:  45.42°N, 88.1°W
Report Text: KIMT 211254Z AUTO 02008KT 10SM OVC013 04/02 A3020 RMK AO2 SLP237 T00440017
Loading
Personal Weather Stations






























Interactive Weather Map
Tropical Storm Tracking
New forecast layout! Learn more

10-Day Weather Forecast

Advertisements
Track Severe Weather on mobile